createdAt,value
2022-09-26T00:01:57.799Z,13.10
2022-09-26T00:06:02.035Z,12.90
2022-09-26T00:10:05.754Z,12.90
2022-09-26T00:14:11.367Z,13.00
2022-09-26T00:18:15.390Z,12.90
2022-09-26T00:22:18.087Z,13.10
2022-09-26T00:26:23.029Z,12.90
2022-09-26T00:30:25.784Z,12.90
2022-09-26T00:34:29.909Z,12.90
2022-09-26T00:38:32.743Z,12.80
2022-09-26T00:42:35.457Z,12.90
2022-09-26T00:46:41.379Z,13.00
2022-09-26T00:50:45.467Z,12.80
2022-09-26T00:54:53.140Z,12.90
2022-09-26T00:59:03.047Z,12.90
2022-09-26T01:03:06.022Z,12.80
2022-09-26T01:07:15.160Z,12.70
2022-09-26T01:11:18.353Z,12.70
2022-09-26T01:15:21.088Z,12.70
2022-09-26T01:19:32.979Z,12.60
2022-09-26T01:24:26.653Z,12.70
2022-09-26T01:28:46.251Z,12.60
2022-09-26T01:33:33.519Z,12.70
2022-09-26T01:37:47.515Z,12.80
2022-09-26T01:41:58.080Z,12.80
2022-09-26T01:46:05.622Z,12.60
2022-09-26T01:50:16.151Z,12.50
2022-09-26T01:54:26.883Z,12.60
2022-09-26T01:58:34.971Z,12.60
2022-09-26T02:02:41.782Z,12.40
2022-09-26T02:06:48.729Z,12.40
2022-09-26T02:10:57.629Z,12.50
2022-09-26T02:15:03.973Z,12.40
2022-09-26T02:19:11.997Z,12.60
2022-09-26T02:23:14.913Z,12.50
2022-09-26T02:27:19.003Z,12.50
2022-09-26T02:31:24.658Z,12.50
2022-09-26T02:35:45.866Z,12.50
2022-09-26T02:39:50.627Z,12.50
2022-09-26T02:44:17.042Z,12.40
2022-09-26T02:48:32.332Z,12.50
2022-09-26T02:52:43.056Z,12.40
2022-09-26T02:56:58.658Z,12.30
2022-09-26T03:01:10.022Z,12.40
2022-09-26T03:05:16.165Z,12.50
2022-09-26T03:09:20.526Z,12.40
2022-09-26T03:13:25.155Z,12.40
2022-09-26T03:17:31.066Z,12.30
2022-09-26T03:21:37.037Z,12.30
2022-09-26T03:25:41.269Z,12.30
2022-09-26T03:29:47.795Z,12.30
2022-09-26T03:33:57.743Z,12.30
2022-09-26T03:38:00.465Z,12.20
2022-09-26T03:42:06.729Z,12.30
2022-09-26T03:46:11.320Z,12.20
2022-09-26T03:50:16.227Z,12.20
2022-09-26T03:54:18.951Z,12.20
2022-09-26T03:58:21.665Z,12.30
2022-09-26T04:02:24.489Z,12.20
2022-09-26T04:06:43.841Z,12.20
2022-09-26T04:10:47.239Z,12.40
2022-09-26T04:14:50.002Z,12.30
2022-09-26T04:18:57.298Z,12.30
2022-09-26T04:23:02.990Z,12.20
2022-09-26T04:27:06.488Z,12.40
2022-09-26T04:31:12.134Z,12.20
2022-09-26T04:35:17.485Z,12.30
2022-09-26T04:39:21.545Z,12.20
2022-09-26T04:43:24.687Z,12.10
2022-09-26T04:47:27.877Z,12.00
2022-09-26T04:51:56.783Z,12.10
2022-09-26T04:56:02.010Z,12.00
2022-09-26T05:00:08.559Z,12.00
2022-09-26T05:04:12.875Z,12.10
2022-09-26T05:08:15.908Z,12.00
2022-09-26T05:12:20.039Z,11.90
2022-09-26T05:16:28.250Z,11.90
2022-09-26T05:20:32.758Z,11.90
2022-09-26T05:24:53.686Z,11.90
2022-09-26T05:29:06.851Z,11.90
2022-09-26T05:33:20.133Z,11.90
2022-09-26T05:37:23.261Z,11.90
2022-09-26T05:41:29.419Z,11.90
2022-09-26T05:45:33.927Z,11.90
2022-09-26T05:49:38.414Z,11.80
2022-09-26T05:53:46.128Z,11.80
2022-09-26T05:57:53.965Z,11.90
2022-09-26T06:02:01.846Z,12.00
2022-09-26T06:06:27.386Z,12.10
2022-09-26T06:10:38.500Z,12.10
2022-09-26T06:14:46.788Z,12.10
2022-09-26T06:18:52.942Z,12.00
2022-09-26T06:22:55.946Z,12.10
2022-09-26T06:26:58.691Z,12.20
2022-09-26T06:31:01.597Z,12.20
2022-09-26T06:35:33.165Z,12.20
2022-09-26T06:39:45.316Z,12.20
2022-09-26T06:43:49.082Z,12.10
2022-09-26T06:48:15.039Z,12.20
2022-09-26T06:52:45.294Z,12.20
2022-09-26T06:56:49.610Z,12.20
2022-09-26T07:00:52.899Z,12.20
2022-09-26T07:05:14.455Z,12.30
2022-09-26T07:09:27.768Z,12.40
2022-09-26T07:13:36.334Z,12.40
2022-09-26T07:17:39.156Z,12.50
2022-09-26T07:21:44.561Z,12.50
2022-09-26T07:26:03.559Z,12.60
2022-09-26T07:30:09.238Z,12.80
2022-09-26T07:34:24.842Z,12.90
2022-09-26T07:38:27.517Z,12.80
2022-09-26T07:42:32.857Z,12.90
2022-09-26T07:46:53.189Z,12.90
2022-09-26T07:50:58.927Z,12.70
2022-09-26T07:55:20.289Z,12.60
2022-09-26T07:59:36.711Z,12.50
2022-09-26T08:04:18.579Z,12.50
2022-09-26T08:08:21.579Z,12.80
2022-09-26T08:12:27.837Z,13.20
2022-09-26T08:16:42.984Z,13.90
2022-09-26T08:20:48.023Z,14.40
2022-09-26T08:24:50.909Z,15.20
2022-09-26T08:29:12.288Z,15.40
2022-09-26T08:33:18.929Z,15.60
2022-09-26T08:37:26.150Z,15.80
2022-09-26T08:42:02.884Z,15.80
2022-09-26T08:46:43.076Z,15.80
2022-09-26T08:51:17.806Z,15.80
2022-09-26T08:55:23.392Z,16.20
2022-09-26T08:59:29.444Z,16.60
2022-09-26T09:03:34.344Z,16.60
2022-09-26T09:07:41.091Z,16.60
2022-09-26T09:12:01.832Z,16.70
2022-09-26T09:16:18.569Z,16.50
2022-09-26T09:20:50.090Z,16.20
2022-09-26T09:25:23.164Z,16.30
2022-09-26T09:29:49.642Z,16.90
2022-09-26T09:34:15.807Z,18.60
2022-09-26T09:38:38.749Z,21.50
2022-09-26T09:42:54.409Z,23.90
2022-09-26T09:46:57.203Z,24.70
2022-09-26T09:51:15.326Z,26.30
2022-09-26T09:55:37.603Z,25.40
2022-09-26T09:59:57.723Z,23.20
2022-09-26T10:04:03.919Z,21.60
2022-09-26T10:08:13.821Z,20.50
2022-09-26T10:12:36.677Z,19.50
2022-09-26T10:17:28.520Z,18.60
2022-09-26T10:21:48.914Z,17.90
2022-09-26T10:25:53.359Z,17.40
2022-09-26T10:29:58.845Z,17.40
2022-09-26T10:34:05.360Z,18.00
2022-09-26T10:38:19.226Z,18.20
2022-09-26T10:42:28.700Z,18.30
2022-09-26T10:46:37.138Z,18.20
2022-09-26T10:51:09.059Z,18.10
2022-09-26T10:55:24.664Z,17.90
2022-09-26T10:59:32.937Z,17.60
2022-09-26T11:03:42.314Z,17.60
2022-09-26T11:08:10.890Z,17.60
2022-09-26T11:12:25.211Z,17.90
2022-09-26T11:16:33.642Z,18.10
2022-09-26T11:20:46.490Z,18.20
2022-09-26T11:24:59.321Z,18.00
2022-09-26T11:29:13.641Z,17.80
2022-09-26T11:33:45.765Z,17.80
2022-09-26T11:38:18.718Z,17.80
2022-09-26T11:42:36.455Z,17.90
2022-09-26T11:46:48.241Z,18.00
2022-09-26T11:51:22.246Z,18.10
2022-09-26T11:55:32.181Z,18.10
2022-09-26T12:00:06.761Z,18.20
2022-09-26T12:04:47.992Z,18.20
2022-09-26T12:09:10.442Z,18.40
2022-09-26T12:13:24.891Z,18.40
2022-09-26T12:17:49.791Z,18.40
2022-09-26T12:22:18.067Z,18.70
2022-09-26T12:26:28.552Z,18.70
2022-09-26T12:30:38.607Z,18.40
2022-09-26T12:35:04.116Z,19.30
2022-09-26T12:39:24.505Z,21.10
2022-09-26T12:43:53.061Z,23.30
2022-09-26T12:48:14.956Z,24.80
2022-09-26T12:52:30.547Z,25.60
2022-09-26T12:56:45.227Z,25.60
2022-09-26T13:00:56.639Z,23.70
2022-09-26T13:05:38.487Z,22.50
2022-09-26T13:10:04.627Z,22.00
2022-09-26T13:14:27.725Z,22.30
2022-09-26T13:18:37.983Z,22.90
2022-09-26T13:22:44.675Z,22.10
2022-09-26T13:26:54.760Z,21.10
2022-09-26T13:31:01.855Z,21.10
2022-09-26T13:35:14.634Z,21.20
2022-09-26T13:39:24.928Z,21.60
2022-09-26T13:43:47.367Z,21.80
2022-09-26T13:47:55.985Z,22.00
2022-09-26T13:52:21.785Z,22.50
2022-09-26T13:56:47.794Z,22.10
2022-09-26T14:00:56.077Z,21.70
2022-09-26T14:05:28.987Z,21.70
2022-09-26T14:09:42.578Z,21.50
2022-09-26T14:13:47.266Z,21.10
2022-09-26T14:18:23.596Z,21.10
2022-09-26T14:22:37.550Z,20.90
2022-09-26T14:26:43.850Z,21.00
2022-09-26T14:31:01.773Z,20.80
2022-09-26T14:35:16.066Z,20.10
2022-09-26T14:39:33.252Z,19.90
2022-09-26T14:43:36.990Z,19.70
2022-09-26T14:47:43.377Z,19.50
2022-09-26T14:51:48.790Z,19.20
2022-09-26T14:56:00.160Z,19.00
2022-09-26T15:00:03.733Z,18.90
2022-09-26T15:04:15.426Z,18.70
2022-09-26T15:08:25.182Z,18.70
2022-09-26T15:12:39.777Z,18.60
2022-09-26T15:16:48.207Z,18.50
2022-09-26T15:20:55.278Z,18.50
2022-09-26T15:25:08.425Z,18.30
2022-09-26T15:29:14.535Z,18.10
2022-09-26T15:33:18.482Z,18.10
2022-09-26T15:37:24.066Z,18.00
2022-09-26T15:41:44.649Z,17.90
2022-09-26T15:45:59.316Z,17.80
2022-09-26T15:50:11.996Z,17.70
2022-09-26T15:54:22.778Z,17.60
2022-09-26T15:58:32.858Z,17.50
2022-09-26T16:02:37.214Z,17.30
2022-09-26T16:06:42.811Z,17.20
2022-09-26T16:10:54.573Z,17.10
2022-09-26T16:15:01.526Z,17.00
2022-09-26T16:19:05.677Z,16.90
2022-09-26T16:23:26.988Z,16.80
2022-09-26T16:27:35.163Z,16.60
2022-09-26T16:31:45.431Z,16.40
2022-09-26T16:35:51.433Z,16.30
2022-09-26T16:39:56.101Z,16.10
2022-09-26T16:44:05.259Z,16.20
2022-09-26T16:48:33.787Z,16.00
2022-09-26T16:52:37.929Z,15.80
2022-09-26T16:56:42.341Z,15.50
2022-09-26T17:01:03.054Z,15.50
2022-09-26T17:05:14.099Z,15.50
2022-09-26T17:09:19.610Z,15.40
2022-09-26T17:13:24.845Z,15.50
2022-09-26T17:17:30.226Z,15.30
2022-09-26T17:21:33.240Z,15.20
2022-09-26T17:25:37.463Z,15.10
2022-09-26T17:29:44.379Z,15.00
2022-09-26T17:33:49.628Z,15.00
2022-09-26T17:37:52.615Z,14.90
2022-09-26T17:41:58.956Z,14.70
2022-09-26T17:46:02.637Z,14.60
2022-09-26T17:50:07.487Z,14.70
2022-09-26T17:54:16.715Z,14.40
2022-09-26T17:58:21.307Z,14.40
2022-09-26T18:02:31.102Z,14.20
2022-09-26T18:06:34.183Z,14.20
2022-09-26T18:10:41.771Z,14.10
2022-09-26T18:14:46.261Z,14.10
2022-09-26T18:18:49.104Z,14.20
2022-09-26T18:22:53.263Z,14.10
2022-09-26T18:27:03.870Z,14.10
2022-09-26T18:31:12.251Z,14.00
2022-09-26T18:35:16.883Z,14.00
2022-09-26T18:39:19.706Z,14.00
2022-09-26T18:43:24.586Z,13.90
2022-09-26T18:47:28.886Z,13.70
2022-09-26T18:51:31.700Z,13.70
2022-09-26T18:55:51.782Z,13.70
2022-09-26T18:59:54.566Z,13.60
2022-09-26T19:04:01.503Z,13.70
2022-09-26T19:08:05.044Z,13.80
2022-09-26T19:12:08.251Z,13.70
2022-09-26T19:16:11.838Z,13.60
2022-09-26T19:20:16.164Z,13.50
2022-09-26T19:24:31.771Z,13.70
2022-09-26T19:28:36.195Z,13.60
2022-09-26T19:32:41.529Z,13.50
2022-09-26T19:36:45.683Z,13.60
2022-09-26T19:40:49.284Z,13.60
2022-09-26T19:44:52.174Z,13.60
2022-09-26T19:48:55.141Z,13.60
2022-09-26T19:52:59.554Z,13.60
2022-09-26T19:57:02.327Z,13.60
2022-09-26T20:01:15.925Z,13.60
2022-09-26T20:05:23.159Z,13.60
2022-09-26T20:09:28.766Z,13.50
2022-09-26T20:13:51.873Z,13.30
2022-09-26T20:17:57.462Z,13.50
2022-09-26T20:22:02.349Z,13.20
2022-09-26T20:26:09.638Z,13.20
2022-09-26T20:30:32.516Z,13.10
2022-09-26T20:34:35.309Z,13.30
2022-09-26T20:38:41.415Z,13.10
2022-09-26T20:42:48.183Z,13.10
2022-09-26T20:46:52.234Z,13.00
2022-09-26T20:50:56.014Z,12.90
2022-09-26T20:54:59.367Z,12.90
2022-09-26T20:59:03.523Z,12.90
2022-09-26T21:03:07.203Z,12.90
2022-09-26T21:07:12.567Z,12.90
2022-09-26T21:11:16.151Z,12.90
2022-09-26T21:15:21.501Z,12.80
2022-09-26T21:19:27.762Z,12.90
2022-09-26T21:23:43.542Z,12.90
2022-09-26T21:27:47.246Z,12.90
2022-09-26T21:31:54.145Z,13.00
2022-09-26T21:35:57.306Z,12.90
2022-09-26T21:40:00.160Z,13.00
2022-09-26T21:44:06.864Z,12.90
2022-09-26T21:48:10.851Z,13.00
2022-09-26T21:52:17.422Z,12.80
2022-09-26T21:56:22.542Z,12.90
2022-09-26T22:00:25.360Z,13.00
2022-09-26T22:04:29.726Z,12.80
2022-09-26T22:08:32.997Z,12.90
2022-09-26T22:12:35.783Z,12.90
2022-09-26T22:16:38.698Z,12.90
2022-09-26T22:20:42.918Z,13.00
2022-09-26T22:24:45.854Z,12.80
2022-09-26T22:28:49.150Z,12.70
2022-09-26T22:32:51.956Z,12.80
2022-09-26T22:36:56.126Z,12.80
2022-09-26T22:40:59.738Z,12.80
2022-09-26T22:45:02.842Z,12.70
2022-09-26T22:49:05.888Z,12.70
2022-09-26T22:53:10.057Z,12.60
2022-09-26T22:57:12.894Z,12.70
2022-09-26T23:01:18.580Z,12.50
2022-09-26T23:05:21.460Z,12.70
2022-09-26T23:09:25.627Z,12.60
2022-09-26T23:13:29.718Z,12.50
2022-09-26T23:17:33.382Z,12.60
2022-09-26T23:21:36.183Z,12.60
2022-09-26T23:25:45.918Z,12.70
2022-09-26T23:29:48.695Z,12.70
2022-09-26T23:33:51.528Z,12.70
2022-09-26T23:37:54.336Z,12.70
2022-09-26T23:41:58.699Z,12.60
2022-09-26T23:46:01.555Z,12.70
2022-09-26T23:50:04.964Z,12.80
2022-09-26T23:54:08.293Z,12.90
2022-09-26T23:58:13.072Z,12.90
